Time;durP1;ratioP1;P1;durP2;ratioP2;P2;SDS_P1;SDS_P2;PMS_P1;PMS_P2;Temp;Humidity;BMP_temperature;BMP_pressure;BME280_temperature;BME280_humidity;BME280_pressure;Samples;Min_cycle;Max_cycle;Signal;HPM_P1;HPM_P2
2022/05/14 00:01:07;;;;;;;10.55;9.75;;;;;;;;;;10443298;28;20221;-73
2022/05/14 00:06:12;;;;;;;11.18;10.18;;;;;;;;;;10451898;28;20208;-74
2022/05/14 00:16:35;;;;;;;10.15;9.35;;;;;;;;;;10443355;28;21200;-73
2022/05/14 00:21:37;;;;;;;11.30;10.48;;;;;;;;;;10464031;28;20211;-74
2022/05/14 00:26:39;;;;;;;12.65;11.45;;;;;;;;;;10433997;28;20236;-74
2022/05/14 00:31:40;;;;;;;10.48;9.48;;;;;;;;;;10415938;28;20207;-74
2022/05/14 00:36:41;;;;;;;11.07;10.15;;;;;;;;;;10447655;28;21019;-74
2022/05/14 00:41:49;;;;;;;14.18;11.93;;;;;;;;;;10441714;28;20204;-74
2022/05/14 00:46:56;;;;;;;12.45;11.23;;;;;;;;;;10452827;28;20235;-75
2022/05/14 00:51:58;;;;;;;13.63;11.13;;;;;;;;;;10464908;28;20206;-74
2022/05/14 00:57:07;;;;;;;11.73;10.90;;;;;;;;;;10453341;28;20198;-74
2022/05/14 01:02:08;;;;;;;13.63;10.68;;;;;;;;;;10446751;28;20218;-74
2022/05/14 01:07:14;;;;;;;16.90;12.80;;;;;;;;;;10450902;28;20202;-74
2022/05/14 01:12:20;;;;;;;14.15;12.80;;;;;;;;;;10441765;28;20202;-73
2022/05/14 01:17:22;;;;;;;14.40;12.95;;;;;;;;;;10424323;28;20318;-74
2022/05/14 01:22:38;;;;;;;15.00;11.95;;;;;;;;;;10442047;28;20202;-71
2022/05/14 01:27:49;;;;;;;14.98;13.48;;;;;;;;;;10455255;28;20205;-72
2022/05/14 01:33:04;;;;;;;14.27;12.88;;;;;;;;;;10432110;28;20211;-72
2022/05/14 01:38:09;;;;;;;14.50;13.10;;;;;;;;;;10421722;28;20889;-72
2022/05/14 01:43:11;;;;;;;13.90;12.48;;;;;;;;;;10444149;28;20225;-71
2022/05/14 01:48:13;;;;;;;15.10;13.55;;;;;;;;;;10447673;28;20264;-72
2022/05/14 01:53:15;;;;;;;15.68;14.30;;;;;;;;;;10438864;28;20198;-72
2022/05/14 02:03:39;;;;;;;14.35;13.10;;;;;;;;;;10448221;28;20210;-72
2022/05/14 02:08:40;;;;;;;14.57;13.07;;;;;;;;;;10442765;28;20241;-73
2022/05/14 02:13:42;;;;;;;18.73;14.05;;;;;;;;;;10453294;28;20198;-72
2022/05/14 02:18:44;;;;;;;16.42;14.88;;;;;;;;;;10451089;28;20643;-72
2022/05/14 02:23:45;;;;;;;16.63;14.98;;;;;;;;;;10433427;28;20277;-72
2022/05/14 02:28:46;;;;;;;16.77;15.02;;;;;;;;;;10434178;28;20197;-72
2022/05/14 02:33:47;;;;;;;16.90;15.23;;;;;;;;;;10445176;28;20355;-72
2022/05/14 02:38:48;;;;;;;16.35;14.88;;;;;;;;;;10448127;28;20221;-72
2022/05/14 02:43:50;;;;;;;17.17;15.38;;;;;;;;;;10434414;28;21143;-72
2022/05/14 02:48:51;;;;;;;16.88;15.25;;;;;;;;;;10431922;28;20202;-73
2022/05/14 02:53:52;;;;;;;16.67;15.13;;;;;;;;;;10432128;28;20252;-72
2022/05/14 02:59:08;;;;;;;18.00;14.57;;;;;;;;;;10436215;28;20289;-71
2022/05/14 03:04:12;;;;;;;19.52;15.20;;;;;;;;;;10454437;28;20217;-71
2022/05/14 03:09:13;;;;;;;16.88;14.70;;;;;;;;;;10447378;28;20453;-72
2022/05/14 03:14:15;;;;;;;18.40;16.52;;;;;;;;;;10451602;28;20244;-73
2022/05/14 03:19:16;;;;;;;17.48;15.75;;;;;;;;;;10457453;28;20240;-72
2022/05/14 03:24:19;;;;;;;17.88;16.05;;;;;;;;;;10440533;28;20901;-72
2022/05/14 03:29:20;;;;;;;18.08;16.30;;;;;;;;;;10454598;28;20226;-72
2022/05/14 03:34:21;;;;;;;17.40;15.75;;;;;;;;;;10458714;28;20825;-72
2022/05/14 03:39:22;;;;;;;16.52;14.70;;;;;;;;;;10459832;28;20218;-73
2022/05/14 03:44:23;;;;;;;18.23;16.27;;;;;;;;;;10459263;28;20227;-72
2022/05/14 03:49:25;;;;;;;21.52;16.55;;;;;;;;;;10475827;28;20202;-73
2022/05/14 03:54:26;;;;;;;16.88;15.15;;;;;;;;;;10458286;28;20212;-74
2022/05/14 03:59:27;;;;;;;15.73;14.23;;;;;;;;;;10423747;28;20624;-74
2022/05/14 04:04:28;;;;;;;15.95;13.60;;;;;;;;;;10456874;28;20233;-73
2022/05/14 04:09:29;;;;;;;13.57;12.20;;;;;;;;;;10465151;28;20789;-73
2022/05/14 04:14:31;;;;;;;14.45;13.07;;;;;;;;;;10456320;28;21082;-73
2022/05/14 04:19:32;;;;;;;16.17;14.40;;;;;;;;;;10458289;28;20914;-73
2022/05/14 04:24:33;;;;;;;16.80;12.95;;;;;;;;;;10464927;28;20195;-73
2022/05/14 04:29:35;;;;;;;15.18;12.77;;;;;;;;;;10457633;28;20202;-72
2022/05/14 04:34:37;;;;;;;17.02;14.05;;;;;;;;;;10457106;28;20266;-73
2022/05/14 04:39:39;;;;;;;13.98;12.55;;;;;;;;;;10438698;28;20209;-74
2022/05/14 04:44:41;;;;;;;18.65;14.23;;;;;;;;;;10459124;28;20218;-74
2022/05/14 04:49:45;;;;;;;19.10;13.35;;;;;;;;;;10459675;28;20198;-74
2022/05/14 04:54:47;;;;;;;17.98;14.38;;;;;;;;;;10442209;28;20670;-73
2022/05/14 04:59:49;;;;;;;15.80;14.13;;;;;;;;;;10431043;28;21022;-73
2022/05/14 05:04:50;;;;;;;16.90;13.73;;;;;;;;;;10450485;28;20202;-73
2022/05/14 05:09:53;;;;;;;15.50;13.13;;;;;;;;;;10450872;28;20731;-74
2022/05/14 05:14:55;;;;;;;16.05;12.50;;;;;;;;;;10461414;28;20776;-74
2022/05/14 05:19:56;;;;;;;13.73;12.23;;;;;;;;;;10447371;28;20248;-75
2022/05/14 05:24:57;;;;;;;12.93;10.90;;;;;;;;;;10456315;28;20593;-73
2022/05/14 05:29:58;;;;;;;13.60;11.70;;;;;;;;;;10413159;28;20259;-74
2022/05/14 05:34:59;;;;;;;12.80;11.52;;;;;;;;;;10430989;28;20237;-74
2022/05/14 05:40:00;;;;;;;14.98;12.32;;;;;;;;;;10443082;28;20707;-75
2022/05/14 05:45:01;;;;;;;12.65;11.38;;;;;;;;;;10425073;28;20925;-74
2022/05/14 05:50:03;;;;;;;12.70;11.50;;;;;;;;;;10425648;28;20261;-74
2022/05/14 06:00:26;;;;;;;10.95;9.80;;;;;;;;;;10434332;28;20344;-74
2022/05/14 06:05:28;;;;;;;10.68;8.00;;;;;;;;;;10422152;28;20206;-75
2022/05/14 06:10:29;;;;;;;8.50;7.25;;;;;;;;;;10448375;28;20207;-75
2022/05/14 06:15:30;;;;;;;7.25;6.53;;;;;;;;;;10414742;28;21045;-74
2022/05/14 06:20:31;;;;;;;7.75;5.80;;;;;;;;;;10428003;28;20199;-75
2022/05/14 06:25:32;;;;;;;6.95;5.50;;;;;;;;;;10436425;28;20219;-75
2022/05/14 06:30:33;;;;;;;6.22;5.53;;;;;;;;;;10442093;28;20221;-74
2022/05/14 06:35:36;;;;;;;9.43;5.25;;;;;;;;;;10448166;28;20847;-74
2022/05/14 06:40:38;;;;;;;7.07;4.93;;;;;;;;;;10448936;28;20207;-75
2022/05/14 06:45:39;;;;;;;9.73;5.47;;;;;;;;;;10448082;28;20875;-75
2022/05/14 06:50:43;;;;;;;8.80;5.32;;;;;;;;;;10449627;28;20190;-75
2022/05/14 06:55:46;;;;;;;7.22;4.93;;;;;;;;;;10418136;28;20267;-75
2022/05/14 07:00:47;;;;;;;5.38;4.85;;;;;;;;;;10424089;28;20214;-75
2022/05/14 07:11:10;;;;;;;9.52;4.32;;;;;;;;;;10437749;28;20263;-75
2022/05/14 07:16:11;;;;;;;5.32;3.72;;;;;;;;;;10432165;28;20215;-76
2022/05/14 07:21:13;;;;;;;10.15;4.25;;;;;;;;;;10450298;28;20191;-76
2022/05/14 07:26:14;;;;;;;5.70;3.42;;;;;;;;;;10421858;28;20742;-76
2022/05/14 07:31:15;;;;;;;11.90;4.00;;;;;;;;;;10414343;28;20222;-74
2022/05/14 07:36:19;;;;;;;7.78;3.58;;;;;;;;;;10430291;28;20227;-76
2022/05/14 07:41:20;;;;;;;8.20;3.20;;;;;;;;;;10421117;28;20206;-77
2022/05/14 07:46:26;;;;;;;7.65;3.17;;;;;;;;;;10394948;28;20226;-76
2022/05/14 07:51:27;;;;;;;11.98;4.10;;;;;;;;;;10424852;28;20788;-77
2022/05/14 07:56:28;;;;;;;7.80;3.38;;;;;;;;;;10415900;28;20712;-76
2022/05/14 08:01:29;;;;;;;8.38;3.67;;;;;;;;;;10413448;28;20827;-79
2022/05/14 08:06:30;;;;;;;7.35;3.08;;;;;;;;;;10446067;28;20230;-78
2022/05/14 08:11:32;;;;;;;9.63;3.30;;;;;;;;;;10437446;28;20244;-78
2022/05/14 08:16:33;;;;;;;8.35;3.30;;;;;;;;;;10470825;28;20234;-79
2022/05/14 08:26:55;;;;;;;4.30;2.83;;;;;;;;;;10434017;28;20202;-78
2022/05/14 08:31:57;;;;;;;3.90;2.17;;;;;;;;;;10440052;28;20584;-78
2022/05/14 08:36:58;;;;;;;9.38;2.97;;;;;;;;;;10416386;28;20210;-77
2022/05/14 08:42:00;;;;;;;6.18;2.58;;;;;;;;;;10453328;28;20432;-78
2022/05/14 08:47:06;;;;;;;8.80;2.50;;;;;;;;;;10462755;28;20265;-78
2022/05/14 08:52:11;;;;;;;11.73;2.75;;;;;;;;;;10430457;28;20241;-78
2022/05/14 08:57:15;;;;;;;6.10;2.53;;;;;;;;;;10442366;28;20213;-78
2022/05/14 09:02:19;;;;;;;4.63;2.05;;;;;;;;;;10454010;28;20599;-78
2022/05/14 09:07:20;;;;;;;7.32;2.47;;;;;;;;;;10442974;28;20233;-77
2022/05/14 09:12:23;;;;;;;9.20;2.53;;;;;;;;;;10422081;28;20209;-81
2022/05/14 09:17:27;;;;;;;3.97;1.88;;;;;;;;;;10408583;28;20206;-81
2022/05/14 09:22:37;;;;;;;5.45;2.28;;;;;;;;;;10422878;28;20205;-78
2022/05/14 09:27:58;;;;;;;7.78;2.15;;;;;;;;;;10448421;28;20209;-80
2022/05/14 09:33:00;;;;;;;6.75;2.40;;;;;;;;;;10429183;28;20213;-80
2022/05/14 09:38:09;;;;;;;6.93;2.58;;;;;;;;;;10430628;28;20221;-80
2022/05/14 09:43:12;;;;;;;5.53;2.03;;;;;;;;;;10437172;28;20197;-80
2022/05/14 09:48:16;;;;;;;6.28;2.55;;;;;;;;;;10463189;28;20271;-79
2022/05/14 09:53:49;;;;;;;8.98;2.22;;;;;;;;;;10442877;28;21052;-80
2022/05/14 09:59:02;;;;;;;7.20;1.80;;;;;;;;;;10417288;28;20282;-79
2022/05/14 10:04:21;;;;;;;6.35;2.08;;;;;;;;;;10432042;28;20217;-79
2022/05/14 10:09:23;;;;;;;11.73;2.40;;;;;;;;;;10395720;28;20233;-81
2022/05/14 10:14:24;;;;;;;6.80;2.65;;;;;;;;;;10424698;28;20234;-80
2022/05/14 10:19:25;;;;;;;4.85;2.72;;;;;;;;;;10443021;28;20210;-80
2022/05/14 10:30:00;;;;;;;6.47;2.67;;;;;;;;;;10429018;28;20699;-80
2022/05/14 10:35:11;;;;;;;7.63;2.90;;;;;;;;;;10433579;28;20213;-81
2022/05/14 10:40:19;;;;;;;7.13;2.55;;;;;;;;;;10408199;28;21048;-80
2022/05/14 10:45:23;;;;;;;5.38;2.45;;;;;;;;;;10442112;28;20218;-81
2022/05/14 10:50:29;;;;;;;4.90;2.53;;;;;;;;;;10442073;28;20233;-82
2022/05/14 10:55:33;;;;;;;6.53;2.08;;;;;;;;;;10418865;28;20211;-81
2022/05/14 11:00:39;;;;;;;6.25;2.03;;;;;;;;;;10434658;28;20221;-81
2022/05/14 11:05:49;;;;;;;5.65;1.85;;;;;;;;;;10442042;28;20226;-79
2022/05/14 11:11:01;;;;;;;5.32;2.10;;;;;;;;;;10423700;28;20213;-80
2022/05/14 11:16:07;;;;;;;2.55;1.60;;;;;;;;;;10446067;28;20962;-82
2022/05/14 11:21:09;;;;;;;3.42;1.80;;;;;;;;;;10413010;28;20583;-80
2022/05/14 11:26:13;;;;;;;9.30;2.33;;;;;;;;;;10447131;28;21141;-81
2022/05/14 11:31:24;;;;;;;7.40;2.28;;;;;;;;;;10439023;28;20226;-81
2022/05/14 11:36:27;;;;;;;4.57;1.90;;;;;;;;;;10434003;28;20705;-80
2022/05/14 11:41:36;;;;;;;4.38;1.60;;;;;;;;;;10417831;28;20248;-80
2022/05/14 11:46:40;;;;;;;7.75;2.05;;;;;;;;;;10409076;28;20230;-80
2022/05/14 11:52:00;;;;;;;4.78;1.60;;;;;;;;;;10430609;28;20227;-81
2022/05/14 11:57:22;;;;;;;4.45;1.50;;;;;;;;;;10438924;28;20210;-80
2022/05/14 12:02:34;;;;;;;10.13;2.42;;;;;;;;;;10455509;28;20329;-80
2022/05/14 12:07:56;;;;;;;2.95;1.77;;;;;;;;;;10438273;28;20201;-81
2022/05/14 12:13:11;;;;;;;6.53;1.63;;;;;;;;;;10441779;28;20210;-80
2022/05/14 12:18:12;;;;;;;4.28;1.42;;;;;;;;;;10456480;28;20211;-80
2022/05/14 12:23:17;;;;;;;7.03;1.60;;;;;;;;;;10439307;28;20256;-80
2022/05/14 12:28:21;;;;;;;6.18;1.63;;;;;;;;;;10440278;28;20203;-80
2022/05/14 12:33:24;;;;;;;4.75;1.90;;;;;;;;;;10423850;28;20727;-80
2022/05/14 12:38:35;;;;;;;8.18;1.85;;;;;;;;;;10444219;28;20223;-81
2022/05/14 12:43:37;;;;;;;10.25;2.45;;;;;;;;;;10423151;28;20251;-80
2022/05/14 12:48:43;;;;;;;6.53;2.42;;;;;;;;;;10444970;28;20205;-82
2022/05/14 12:53:44;;;;;;;9.55;2.10;;;;;;;;;;10460003;28;20277;-79
2022/05/14 12:58:45;;;;;;;7.95;2.40;;;;;;;;;;10450443;28;20332;-81
2022/05/14 13:04:01;;;;;;;8.98;1.92;;;;;;;;;;10443142;28;20214;-81
2022/05/14 13:09:05;;;;;;;7.78;1.90;;;;;;;;;;10463159;28;20221;-80
2022/05/14 13:14:12;;;;;;;6.70;2.08;;;;;;;;;;10455223;28;20218;-80
2022/05/14 13:19:28;;;;;;;7.25;1.98;;;;;;;;;;10444345;28;20233;-81
2022/05/14 13:24:39;;;;;;;4.63;2.03;;;;;;;;;;10456231;28;20304;-82
2022/05/14 13:30:01;;;;;;;7.80;1.92;;;;;;;;;;10468260;28;20191;-82
2022/05/14 13:40:38;;;;;;;5.32;1.77;;;;;;;;;;10458423;28;20214;-80
2022/05/14 13:45:50;;;;;;;6.10;2.13;;;;;;;;;;10448082;28;20223;-81
2022/05/14 13:50:57;;;;;;;8.30;2.55;;;;;;;;;;10423670;28;20198;-80
2022/05/14 13:56:21;;;;;;;9.40;1.90;;;;;;;;;;10464459;28;20190;-82
2022/05/14 14:01:32;;;;;;;9.50;2.47;;;;;;;;;;10448602;28;20207;-82
2022/05/14 14:06:35;;;;;;;5.20;2.38;;;;;;;;;;10454053;28;20206;-79
2022/05/14 14:11:41;;;;;;;11.15;2.50;;;;;;;;;;10468188;28;20204;-81
2022/05/14 14:16:42;;;;;;;9.73;2.20;;;;;;;;;;10446559;28;20213;-82
2022/05/14 14:21:44;;;;;;;8.63;2.35;;;;;;;;;;10439680;28;20917;-80
2022/05/14 14:26:45;;;;;;;5.38;2.28;;;;;;;;;;10452334;28;20214;-80
2022/05/14 14:31:47;;;;;;;8.93;2.50;;;;;;;;;;10462390;28;20210;-80
2022/05/14 14:36:48;;;;;;;8.60;2.25;;;;;;;;;;10447766;28;20210;-81
2022/05/14 14:41:49;;;;;;;7.75;2.00;;;;;;;;;;10442252;28;21019;-80
2022/05/14 14:46:51;;;;;;;8.15;2.47;;;;;;;;;;10442596;28;20235;-82
2022/05/14 14:51:52;;;;;;;7.72;2.33;;;;;;;;;;10461398;28;20198;-81
2022/05/14 14:56:53;;;;;;;5.78;2.25;;;;;;;;;;10434232;28;20489;-80
2022/05/14 15:02:02;;;;;;;9.55;2.42;;;;;;;;;;10446437;28;20217;-80
2022/05/14 15:07:04;;;;;;;6.15;2.58;;;;;;;;;;10451759;28;20260;-80
2022/05/14 15:12:05;;;;;;;6.25;2.58;;;;;;;;;;10437289;28;20232;-80
2022/05/14 15:17:06;;;;;;;8.75;2.22;;;;;;;;;;10442676;28;20210;-80
2022/05/14 15:22:07;;;;;;;7.03;1.98;;;;;;;;;;10430212;28;20200;-80
2022/05/14 15:27:08;;;;;;;10.75;2.88;;;;;;;;;;10442158;28;20203;-80
2022/05/14 15:32:09;;;;;;;6.88;2.15;;;;;;;;;;10444075;28;20487;-80
2022/05/14 15:37:10;;;;;;;9.10;2.10;;;;;;;;;;10420246;28;20210;-79
2022/05/14 15:42:15;;;;;;;8.45;2.05;;;;;;;;;;10438921;28;20209;-80
2022/05/14 15:47:18;;;;;;;7.38;1.92;;;;;;;;;;10445670;28;20256;-80
2022/05/14 15:52:20;;;;;;;9.38;1.83;;;;;;;;;;10440299;28;20221;-79
2022/05/14 15:57:21;;;;;;;9.32;2.75;;;;;;;;;;10429531;28;20875;-81
2022/05/14 16:02:23;;;;;;;9.27;2.47;;;;;;;;;;10460171;28;20210;-81
2022/05/14 16:07:24;;;;;;;8.77;2.08;;;;;;;;;;10445848;28;20210;-79
2022/05/14 16:17:46;;;;;;;5.43;1.50;;;;;;;;;;10434091;28;20297;-80
2022/05/14 16:22:49;;;;;;;4.13;2.08;;;;;;;;;;10415736;28;20311;-79
2022/05/14 16:27:51;;;;;;;8.85;2.10;;;;;;;;;;10459575;28;20197;-80
2022/05/14 16:32:52;;;;;;;6.95;2.55;;;;;;;;;;10427663;28;20213;-80
2022/05/14 16:37:55;;;;;;;8.35;1.92;;;;;;;;;;10429262;28;20218;-80
2022/05/14 16:42:57;;;;;;;15.05;2.40;;;;;;;;;;10384400;28;20758;-79
2022/05/14 16:47:58;;;;;;;8.85;2.67;;;;;;;;;;10417344;28;20230;-79
2022/05/14 16:52:59;;;;;;;12.02;3.47;;;;;;;;;;10430346;28;20201;-78
2022/05/14 16:58:01;;;;;;;10.13;2.35;;;;;;;;;;10442587;28;20214;-79
2022/05/14 17:03:03;;;;;;;9.98;2.97;;;;;;;;;;10422120;28;20222;-79
2022/05/14 17:08:05;;;;;;;7.63;2.20;;;;;;;;;;10415669;28;22501;-80
2022/05/14 17:13:08;;;;;;;11.45;2.67;;;;;;;;;;10392070;28;20203;-79
2022/05/14 17:18:13;;;;;;;9.23;2.58;;;;;;;;;;10428763;28;20217;-80
2022/05/14 17:23:14;;;;;;;9.57;2.42;;;;;;;;;;10405546;28;20297;-80
2022/05/14 17:28:15;;;;;;;11.18;2.50;;;;;;;;;;10426546;28;20206;-79
2022/05/14 17:33:16;;;;;;;10.98;2.47;;;;;;;;;;10449034;28;20303;-78
2022/05/14 17:43:37;;;;;;;8.25;2.53;;;;;;;;;;10421474;28;20792;-77
2022/05/14 17:48:38;;;;;;;11.73;3.47;;;;;;;;;;10422214;28;20203;-77
2022/05/14 17:53:41;;;;;;;8.73;2.40;;;;;;;;;;10421038;28;20300;-78
2022/05/14 17:58:42;;;;;;;5.72;2.55;;;;;;;;;;10419872;28;20206;-77
2022/05/14 18:03:47;;;;;;;16.88;3.08;;;;;;;;;;10423956;28;20218;-77
2022/05/14 18:08:48;;;;;;;12.43;2.30;;;;;;;;;;10425132;28;20199;-78
2022/05/14 18:13:49;;;;;;;5.53;2.40;;;;;;;;;;10414461;28;20213;-81
2022/05/14 18:18:50;;;;;;;13.13;2.58;;;;;;;;;;10428710;28;20213;-77
2022/05/14 18:23:51;;;;;;;12.25;2.75;;;;;;;;;;10437119;28;20197;-76
2022/05/14 18:28:53;;;;;;;8.18;2.85;;;;;;;;;;10440823;28;20705;-77
2022/05/14 18:33:58;;;;;;;10.43;2.30;;;;;;;;;;10445369;28;20915;-78
2022/05/14 18:39:00;;;;;;;9.15;2.10;;;;;;;;;;10446728;28;20939;-78
2022/05/14 18:44:02;;;;;;;8.45;2.53;;;;;;;;;;10453347;28;20299;-77
2022/05/14 18:49:03;;;;;;;12.52;3.35;;;;;;;;;;10465936;28;20207;-78
2022/05/14 18:54:04;;;;;;;10.77;2.80;;;;;;;;;;10439257;28;20234;-78
2022/05/14 18:59:06;;;;;;;10.07;2.60;;;;;;;;;;10424881;28;20328;-77
2022/05/14 19:09:27;;;;;;;12.30;2.53;;;;;;;;;;10444454;28;20209;-74
2022/05/14 19:14:28;;;;;;;13.30;2.47;;;;;;;;;;10427407;28;20356;-74
2022/05/14 19:19:29;;;;;;;5.80;2.08;;;;;;;;;;10441770;28;20218;-74
2022/05/14 19:24:30;;;;;;;8.45;2.38;;;;;;;;;;10429334;28;20254;-74
2022/05/14 19:29:31;;;;;;;11.38;2.72;;;;;;;;;;10430697;28;20195;-74
2022/05/14 19:34:33;;;;;;;7.07;2.88;;;;;;;;;;10439552;28;20578;-75
2022/05/14 19:39:36;;;;;;;10.65;6.10;;;;;;;;;;10430278;28;20210;-75
2022/05/14 19:44:45;;;;;;;25.75;14.95;;;;;;;;;;10424950;28;20253;-75
2022/05/14 19:49:46;;;;;;;9.20;2.65;;;;;;;;;;10428318;28;20206;-75
2022/05/14 19:54:47;;;;;;;10.60;4.13;;;;;;;;;;10434532;28;20233;-75
2022/05/14 19:59:49;;;;;;;6.78;3.33;;;;;;;;;;10442353;28;20237;-75
2022/05/14 20:04:50;;;;;;;30.73;19.90;;;;;;;;;;10399198;28;20242;-75
2022/05/14 20:09:51;;;;;;;10.70;4.30;;;;;;;;;;10395835;28;20202;-76
2022/05/14 20:14:52;;;;;;;16.02;8.13;;;;;;;;;;10428358;28;20211;-76
2022/05/14 20:25:14;;;;;;;57.85;29.85;;;;;;;;;;10408288;28;20206;-75
2022/05/14 20:30:15;;;;;;;69.43;37.53;;;;;;;;;;10429978;28;20215;-75
2022/05/14 20:35:16;;;;;;;99.78;49.20;;;;;;;;;;10431026;28;20849;-75
2022/05/14 20:40:18;;;;;;;69.05;38.30;;;;;;;;;;10416353;28;20971;-76
2022/05/14 20:45:19;;;;;;;99.82;54.13;;;;;;;;;;10415954;28;20303;-75
2022/05/14 20:50:20;;;;;;;61.70;38.33;;;;;;;;;;10436146;28;20198;-75
2022/05/14 20:55:22;;;;;;;20.88;9.38;;;;;;;;;;10429287;28;20267;-75
2022/05/14 21:00:24;;;;;;;7.70;4.20;;;;;;;;;;10422899;28;20253;-75
2022/05/14 21:05:25;;;;;;;9.27;3.63;;;;;;;;;;10440105;28;20217;-76
2022/05/14 21:10:27;;;;;;;12.75;4.95;;;;;;;;;;10443712;28;20202;-76
2022/05/14 21:15:29;;;;;;;9.32;3.63;;;;;;;;;;10446442;28;20203;-75
2022/05/14 21:20:30;;;;;;;7.82;3.63;;;;;;;;;;10417649;28;20768;-75
2022/05/14 21:25:32;;;;;;;19.15;9.88;;;;;;;;;;10446032;28;20205;-75
2022/05/14 21:30:33;;;;;;;27.60;13.32;;;;;;;;;;10433328;28;20287;-75
2022/05/14 21:40:54;;;;;;;47.15;26.05;;;;;;;;;;10446122;28;20754;-76
2022/05/14 21:45:55;;;;;;;61.30;28.27;;;;;;;;;;10443248;28;20218;-75
2022/05/14 21:50:56;;;;;;;16.67;6.63;;;;;;;;;;10436665;28;20202;-75
2022/05/14 21:55:57;;;;;;;9.40;4.25;;;;;;;;;;10439488;28;20194;-75
2022/05/14 22:01:17;;;;;;;11.52;3.60;;;;;;;;;;10434288;28;20221;-75
2022/05/14 22:06:18;;;;;;;6.43;2.97;;;;;;;;;;10443835;28;20351;-76
2022/05/14 22:11:20;;;;;;;5.30;2.65;;;;;;;;;;10446952;28;20202;-75
2022/05/14 22:16:21;;;;;;;4.03;2.30;;;;;;;;;;10447578;28;20205;-76
2022/05/14 22:21:22;;;;;;;5.55;1.83;;;;;;;;;;10434157;28;20205;-76
2022/05/14 22:26:23;;;;;;;10.43;2.85;;;;;;;;;;10437084;28;20208;-75
2022/05/14 22:31:24;;;;;;;4.90;1.98;;;;;;;;;;10430967;28;20228;-76
2022/05/14 22:36:25;;;;;;;7.32;2.80;;;;;;;;;;10449725;28;20217;-76
2022/05/14 22:41:26;;;;;;;19.92;9.38;;;;;;;;;;10441524;28;20236;-76
2022/05/14 22:46:28;;;;;;;18.23;10.00;;;;;;;;;;10448513;28;20307;-76
2022/05/14 22:51:29;;;;;;;16.98;7.97;;;;;;;;;;10441062;28;20835;-75
2022/05/14 22:56:31;;;;;;;11.82;5.15;;;;;;;;;;10435540;28;20191;-76
2022/05/14 23:01:32;;;;;;;4.82;2.53;;;;;;;;;;10449462;28;20207;-76
2022/05/14 23:06:33;;;;;;;3.58;2.40;;;;;;;;;;10461952;28;20198;-76
2022/05/14 23:11:34;;;;;;;4.05;2.28;;;;;;;;;;10445347;28;20205;-76
2022/05/14 23:16:35;;;;;;;6.88;2.63;;;;;;;;;;10446933;28;20213;-77
2022/05/14 23:21:36;;;;;;;4.40;2.25;;;;;;;;;;10455685;28;20900;-76
2022/05/14 23:26:37;;;;;;;3.15;2.42;;;;;;;;;;10458265;28;20198;-75
2022/05/14 23:31:38;;;;;;;6.80;2.42;;;;;;;;;;10455801;28;20238;-75
2022/05/14 23:36:39;;;;;;;5.82;2.15;;;;;;;;;;10396866;28;20256;-76
2022/05/14 23:41:41;;;;;;;9.25;2.60;;;;;;;;;;10423098;28;20252;-75
2022/05/14 23:46:42;;;;;;;2.38;1.48;;;;;;;;;;10442642;28;20214;-77
2022/05/14 23:51:44;;;;;;;9.20;1.88;;;;;;;;;;10447484;28;20732;-76
2022/05/14 23:56:45;;;;;;;3.15;2.03;;;;;;;;;;10446450;28;20220;-75
